sensor_id;sensor_type;location;lat;lon;timestamp;pressure;altitude;pressure_sealevel;temperature;humidity
51715;BME280;39115;59.332;18.034;2022-10-16T00:01:44;100137.31;;;13.67;66.43
51715;BME280;39115;59.332;18.034;2022-10-16T00:04:09;100121.41;;;13.66;66.25
51715;BME280;39115;59.332;18.034;2022-10-16T00:06:35;100132.13;;;13.66;66.39
51715;BME280;39115;59.332;18.034;2022-10-16T00:09:00;100129.63;;;13.64;66.58
51715;BME280;39115;59.332;18.034;2022-10-16T00:11:30;100121.59;;;13.64;66.23
51715;BME280;39115;59.332;18.034;2022-10-16T00:13:58;100122.41;;;13.65;66.26
51715;BME280;39115;59.332;18.034;2022-10-16T00:16:24;100127.75;;;13.65;66.33
51715;BME280;39115;59.332;18.034;2022-10-16T00:18:50;100118.91;;;13.64;66.27
51715;BME280;39115;59.332;18.034;2022-10-16T00:21:17;100125.09;;;13.65;66.49
51715;BME280;39115;59.332;18.034;2022-10-16T00:23:43;100124.28;;;13.64;66.63
51715;BME280;39115;59.332;18.034;2022-10-16T00:26:10;100119.09;;;13.63;66.47
51715;BME280;39115;59.332;18.034;2022-10-16T00:28:36;100119.25;;;13.61;66.34
51715;BME280;39115;59.332;18.034;2022-10-16T00:31:03;100121.09;;;13.60;66.58
51715;BME280;39115;59.332;18.034;2022-10-16T00:33:29;100121.91;;;13.61;66.52
51715;BME280;39115;59.332;18.034;2022-10-16T00:35:54;100117.59;;;13.60;66.55
51715;BME280;39115;59.332;18.034;2022-10-16T00:38:22;100116.75;;;13.59;66.55
51715;BME280;39115;59.332;18.034;2022-10-16T00:40:47;100112.25;;;13.60;66.50
51715;BME280;39115;59.332;18.034;2022-10-16T00:45:56;100100.03;;;13.57;66.38
51715;BME280;39115;59.332;18.034;2022-10-16T00:48:22;100099.22;;;13.57;66.57
51715;BME280;39115;59.332;18.034;2022-10-16T00:50:47;100105.75;;;13.54;66.58
51715;BME280;39115;59.332;18.034;2022-10-16T00:53:13;100104.88;;;13.54;66.46
51715;BME280;39115;59.332;18.034;2022-10-16T00:55:39;100104.25;;;13.52;66.60
51715;BME280;39115;59.332;18.034;2022-10-16T00:58:04;100094.56;;;13.51;66.62
51715;BME280;39115;59.332;18.034;2022-10-16T01:00:30;100108.91;;;13.50;66.57
51715;BME280;39115;59.332;18.034;2022-10-16T01:02:57;100102.72;;;13.49;66.51
51715;BME280;39115;59.332;18.034;2022-10-16T01:05:23;100105.75;;;13.46;66.73
51715;BME280;39115;59.332;18.034;2022-10-16T01:12:41;100088.84;;;13.46;66.65
51715;BME280;39115;59.332;18.034;2022-10-16T01:17:46;100084.06;;;13.41;66.66
51715;BME280;39115;59.332;18.034;2022-10-16T01:22:47;100095.03;;;13.38;66.77
51715;BME280;39115;59.332;18.034;2022-10-16T01:25:16;100090.69;;;13.37;66.76
51715;BME280;39115;59.332;18.034;2022-10-16T01:27:44;100095.03;;;13.38;66.72
51715;BME280;39115;59.332;18.034;2022-10-16T01:30:18;100096.03;;;13.37;66.71
51715;BME280;39115;59.332;18.034;2022-10-16T01:32:56;100095.03;;;13.38;66.46
51715;BME280;39115;59.332;18.034;2022-10-16T01:36:05;100104.91;;;13.37;66.73
51715;BME280;39115;59.332;18.034;2022-10-16T01:38:33;100098.88;;;13.35;66.70
51715;BME280;39115;59.332;18.034;2022-10-16T01:40:58;100110.41;;;13.36;66.82
51715;BME280;39115;59.332;18.034;2022-10-16T01:43:26;100104.06;;;13.37;66.67
51715;BME280;39115;59.332;18.034;2022-10-16T01:45:53;100104.06;;;13.37;66.69
51715;BME280;39115;59.332;18.034;2022-10-16T01:48:19;100111.94;;;13.38;66.74
51715;BME280;39115;59.332;18.034;2022-10-16T01:50:55;100111.06;;;13.38;66.66
51715;BME280;39115;59.332;18.034;2022-10-16T01:53:22;100112.94;;;13.37;66.50
51715;BME280;39115;59.332;18.034;2022-10-16T01:55:48;100118.28;;;13.37;66.77
51715;BME280;39115;59.332;18.034;2022-10-16T01:58:15;100122.75;;;13.37;66.84
51715;BME280;39115;59.332;18.034;2022-10-16T02:00:42;100110.41;;;13.36;66.76
51715;BME280;39115;59.332;18.034;2022-10-16T02:03:08;100109.56;;;13.35;66.82
51715;BME280;39115;59.332;18.034;2022-10-16T02:05:54;100096.03;;;13.37;66.57
51715;BME280;39115;59.332;18.034;2022-10-16T02:08:24;100085.34;;;13.37;66.83
51715;BME280;39115;59.332;18.034;2022-10-16T02:10:51;100087.00;;;13.38;66.82
51715;BME280;39115;59.332;18.034;2022-10-16T02:13:22;100089.88;;;13.36;66.89
51715;BME280;39115;59.332;18.034;2022-10-16T02:15:48;100090.69;;;13.37;66.83
51715;BME280;39115;59.332;18.034;2022-10-16T02:18:14;100103.06;;;13.38;66.83
51715;BME280;39115;59.332;18.034;2022-10-16T02:20:46;100098.56;;;13.38;66.83
51715;BME280;39115;59.332;18.034;2022-10-16T02:23:16;100093.06;;;13.40;66.75
51715;BME280;39115;59.332;18.034;2022-10-16T02:25:43;100091.22;;;13.40;66.46
51715;BME280;39115;59.332;18.034;2022-10-16T02:28:17;100083.88;;;13.42;66.48
51715;BME280;39115;59.332;18.034;2022-10-16T02:30:52;100085.69;;;13.42;66.48
51715;BME280;39115;59.332;18.034;2022-10-16T02:33:18;100094.38;;;13.44;66.72
51715;BME280;39115;59.332;18.034;2022-10-16T02:35:44;100096.38;;;13.42;66.56
51715;BME280;39115;59.332;18.034;2022-10-16T02:38:11;100109.59;;;13.43;66.59
51715;BME280;39115;59.332;18.034;2022-10-16T02:40:37;100102.59;;;13.42;66.44
51715;BME280;39115;59.332;18.034;2022-10-16T02:43:04;100110.78;;;13.41;66.57
51715;BME280;39115;59.332;18.034;2022-10-16T02:45:29;100113.47;;;13.41;66.59
51715;BME280;39115;59.332;18.034;2022-10-16T02:47:54;100107.44;;;13.39;66.98
51715;BME280;39115;59.332;18.034;2022-10-16T02:50:20;100088.53;;;13.40;66.72
51715;BME280;39115;59.332;18.034;2022-10-16T02:52:45;100084.06;;;13.41;66.97
51715;BME280;39115;59.332;18.034;2022-10-16T02:55:11;100075.19;;;13.40;66.70
51715;BME280;39115;59.332;18.034;2022-10-16T02:57:36;100065.34;;;13.41;66.82
51715;BME280;39115;59.332;18.034;2022-10-16T03:00:03;100068.00;;;13.41;66.94
51715;BME280;39115;59.332;18.034;2022-10-16T03:02:28;100060.13;;;13.39;66.72
51715;BME280;39115;59.332;18.034;2022-10-16T03:04:54;100066.34;;;13.40;66.67
51715;BME280;39115;59.332;18.034;2022-10-16T03:07:19;100068.00;;;13.41;66.92
51715;BME280;39115;59.332;18.034;2022-10-16T03:09:44;100060.00;;;13.41;66.94
51715;BME280;39115;59.332;18.034;2022-10-16T03:12:09;100058.13;;;13.41;66.80
51715;BME280;39115;59.332;18.034;2022-10-16T03:14:36;100059.13;;;13.40;66.72
51715;BME280;39115;59.332;18.034;2022-10-16T03:17:02;100060.81;;;13.41;66.89
51715;BME280;39115;59.332;18.034;2022-10-16T03:19:27;100050.13;;;13.41;66.63
51715;BME280;39115;59.332;18.034;2022-10-16T03:21:52;100047.44;;;13.41;66.81
51715;BME280;39115;59.332;18.034;2022-10-16T03:24:18;100035.09;;;13.40;66.77
51715;BME280;39115;59.332;18.034;2022-10-16T03:26:43;100048.78;;;13.37;66.60
51715;BME280;39115;59.332;18.034;2022-10-16T03:29:09;100056.13;;;13.35;66.66
51715;BME280;39115;59.332;18.034;2022-10-16T03:31:34;100044.75;;;13.33;66.85
51715;BME280;39115;59.332;18.034;2022-10-16T03:33:59;100066.97;;;13.34;66.88
51715;BME280;39115;59.332;18.034;2022-10-16T03:36:24;100074.34;;;13.32;66.86
51715;BME280;39115;59.332;18.034;2022-10-16T03:38:50;100068.31;;;13.29;66.83
51715;BME280;39115;59.332;18.034;2022-10-16T03:41:15;100062.16;;;13.29;66.73
51715;BME280;39115;59.332;18.034;2022-10-16T03:43:40;100058.63;;;13.28;66.94
51715;BME280;39115;59.332;18.034;2022-10-16T03:46:06;100057.81;;;13.28;66.99
51715;BME280;39115;59.332;18.034;2022-10-16T03:48:31;100052.59;;;13.26;66.88
51715;BME280;39115;59.332;18.034;2022-10-16T03:50:57;100045.75;;;13.24;66.89
51715;BME280;39115;59.332;18.034;2022-10-16T03:53:22;100036.25;;;13.21;66.76
51715;BME280;39115;59.332;18.034;2022-10-16T03:55:47;100035.59;;;13.19;66.76
51715;BME280;39115;59.332;18.034;2022-10-16T03:58:13;100037.44;;;13.19;66.84
51715;BME280;39115;59.332;18.034;2022-10-16T04:00:42;100040.28;;;13.17;66.83
51715;BME280;39115;59.332;18.034;2022-10-16T04:03:08;100037.63;;;13.17;66.68
51715;BME280;39115;59.332;18.034;2022-10-16T04:05:33;100034.09;;;13.17;66.76
51715;BME280;39115;59.332;18.034;2022-10-16T04:07:59;100031.59;;;13.15;66.78
51715;BME280;39115;59.332;18.034;2022-10-16T04:10:24;100032.59;;;13.14;66.85
51715;BME280;39115;59.332;18.034;2022-10-16T04:12:49;100031.78;;;13.13;66.84
51715;BME280;39115;59.332;18.034;2022-10-16T04:15:15;100033.59;;;13.13;66.75
51715;BME280;39115;59.332;18.034;2022-10-16T04:17:40;100040.78;;;13.12;66.80
51715;BME280;39115;59.332;18.034;2022-10-16T04:20:05;100045.13;;;13.13;66.88
51715;BME280;39115;59.332;18.034;2022-10-16T04:22:31;100045.28;;;13.12;66.73
51715;BME280;39115;59.332;18.034;2022-10-16T04:24:56;100046.28;;;13.11;66.69
51715;BME280;39115;59.332;18.034;2022-10-16T04:27:21;100048.31;;;13.09;66.86
51715;BME280;39115;59.332;18.034;2022-10-16T04:29:47;100045.63;;;13.09;66.76
51715;BME280;39115;59.332;18.034;2022-10-16T04:32:12;100048.63;;;13.06;66.79
51715;BME280;39115;59.332;18.034;2022-10-16T04:34:38;100052.31;;;13.05;66.96
51715;BME280;39115;59.332;18.034;2022-10-16T04:37:04;100047.94;;;13.04;67.00
51715;BME280;39115;59.332;18.034;2022-10-16T04:39:29;100032.94;;;13.03;66.90
51715;BME280;39115;59.332;18.034;2022-10-16T04:41:54;100056.47;;;12.99;67.00
51715;BME280;39115;59.332;18.034;2022-10-16T04:44:19;100037.94;;;12.97;66.93
51715;BME280;39115;59.332;18.034;2022-10-16T04:46:45;100049.63;;;12.96;67.05
51715;BME280;39115;59.332;18.034;2022-10-16T04:49:10;100048.81;;;12.96;66.81
51715;BME280;39115;59.332;18.034;2022-10-16T04:51:35;100049.81;;;12.95;66.94
51715;BME280;39115;59.332;18.034;2022-10-16T04:54:01;100030.44;;;12.93;66.89
51715;BME280;39115;59.332;18.034;2022-10-16T04:56:26;100029.75;;;12.91;67.07
51715;BME280;39115;59.332;18.034;2022-10-16T04:58:52;100038.81;;;12.90;67.04
51715;BME280;39115;59.332;18.034;2022-10-16T05:01:17;100042.63;;;12.87;67.07
51715;BME280;39115;59.332;18.034;2022-10-16T05:03:42;100044.47;;;12.87;67.05
51715;BME280;39115;59.332;18.034;2022-10-16T05:06:07;100048.97;;;12.86;67.10
51715;BME280;39115;59.332;18.034;2022-10-16T05:08:33;100053.66;;;12.84;67.13
51715;BME280;39115;59.332;18.034;2022-10-16T05:10:58;100050.13;;;12.84;67.10
51715;BME280;39115;59.332;18.034;2022-10-16T05:13:23;100041.47;;;12.81;67.20
51715;BME280;39115;59.332;18.034;2022-10-16T05:15:49;100054.97;;;12.80;67.14
51715;BME280;39115;59.332;18.034;2022-10-16T05:18:15;100053.16;;;12.80;67.29
51715;BME280;39115;59.332;18.034;2022-10-16T05:20:40;100044.13;;;12.81;67.15
51715;BME280;39115;59.332;18.034;2022-10-16T05:23:06;100053.97;;;12.81;67.13
51715;BME280;39115;59.332;18.034;2022-10-16T05:25:31;100050.47;;;12.80;67.13
51715;BME280;39115;59.332;18.034;2022-10-16T05:27:56;100052.28;;;12.80;67.19
51715;BME280;39115;59.332;18.034;2022-10-16T05:30:22;100057.63;;;12.80;67.21
51715;BME280;39115;59.332;18.034;2022-10-16T05:32:47;100054.97;;;12.80;67.16
51715;BME280;39115;59.332;18.034;2022-10-16T05:35:16;100047.81;;;12.80;67.16
51715;BME280;39115;59.332;18.034;2022-10-16T05:37:42;100050.47;;;12.80;67.10
51715;BME280;39115;59.332;18.034;2022-10-16T05:40:07;100048.47;;;12.83;67.10
51715;BME280;39115;59.332;18.034;2022-10-16T05:42:33;100046.63;;;12.83;67.09
51715;BME280;39115;59.332;18.034;2022-10-16T05:44:58;100043.78;;;12.85;67.17
51715;BME280;39115;59.332;18.034;2022-10-16T05:47:23;100051.66;;;12.86;67.06
51715;BME280;39115;59.332;18.034;2022-10-16T05:49:48;100051.66;;;12.86;67.15
51715;BME280;39115;59.332;18.034;2022-10-16T05:52:14;100051.47;;;12.88;67.08
51715;BME280;39115;59.332;18.034;2022-10-16T05:54:39;100039.13;;;12.87;67.08
51715;BME280;39115;59.332;18.034;2022-10-16T05:57:04;100046.31;;;12.86;67.20
51715;BME280;39115;59.332;18.034;2022-10-16T05:59:31;100057.81;;;12.87;67.08
51715;BME280;39115;59.332;18.034;2022-10-16T06:01:56;100053.16;;;12.89;67.10
51715;BME280;39115;59.332;18.034;2022-10-16T06:04:21;100059.13;;;12.91;67.18
51715;BME280;39115;59.332;18.034;2022-10-16T06:06:46;100062.47;;;12.93;67.01
51715;BME280;39115;59.332;18.034;2022-10-16T06:09:12;100076.69;;;12.93;67.15
51715;BME280;39115;59.332;18.034;2022-10-16T06:11:37;100070.50;;;12.93;67.16
51715;BME280;39115;59.332;18.034;2022-10-16T06:14:02;100065.16;;;12.93;67.09
51715;BME280;39115;59.332;18.034;2022-10-16T06:16:31;100066.84;;;12.94;67.33
51715;BME280;39115;59.332;18.034;2022-10-16T06:18:57;100072.00;;;12.95;67.26
51715;BME280;39115;59.332;18.034;2022-10-16T06:21:24;100071.19;;;12.95;67.25
51715;BME280;39115;59.332;18.034;2022-10-16T06:23:50;100074.34;;;12.99;67.42
51715;BME280;39115;59.332;18.034;2022-10-16T06:26:16;100073.34;;;13.00;67.23
51715;BME280;39115;59.332;18.034;2022-10-16T06:28:42;100072.19;;;13.02;67.26
51715;BME280;39115;59.332;18.034;2022-10-16T06:31:08;100074.53;;;13.05;67.29
51715;BME280;39115;59.332;18.034;2022-10-16T06:33:34;100084.03;;;13.08;67.34
51715;BME280;39115;59.332;18.034;2022-10-16T06:36:03;100089.03;;;13.11;67.27
51715;BME280;39115;59.332;18.034;2022-10-16T06:38:28;100093.56;;;13.10;67.34
51715;BME280;39115;59.332;18.034;2022-10-16T06:40:54;100083.34;;;13.14;67.46
51715;BME280;39115;59.332;18.034;2022-10-16T06:43:19;100092.06;;;13.16;67.50
51715;BME280;39115;59.332;18.034;2022-10-16T06:45:50;100088.38;;;13.17;67.44
51715;BME280;39115;59.332;18.034;2022-10-16T06:48:15;100095.91;;;13.22;67.44
51715;BME280;39115;59.332;18.034;2022-10-16T06:50:40;100090.19;;;13.25;67.44
51715;BME280;39115;59.332;18.034;2022-10-16T06:53:06;100098.03;;;13.26;67.35
51715;BME280;39115;59.332;18.034;2022-10-16T06:55:31;100097.91;;;13.28;67.23
51715;BME280;39115;59.332;18.034;2022-10-16T06:57:56;100106.41;;;13.32;67.48
51715;BME280;39115;59.332;18.034;2022-10-16T07:00:21;100099.88;;;13.34;67.26
51715;BME280;39115;59.332;18.034;2022-10-16T07:02:47;100096.22;;;13.35;67.56
51715;BME280;39115;59.332;18.034;2022-10-16T07:05:12;100102.09;;;13.39;67.26
51715;BME280;39115;59.332;18.034;2022-10-16T07:07:37;100100.09;;;13.41;67.21
51715;BME280;39115;59.332;18.034;2022-10-16T07:10:03;100104.06;;;13.45;67.21
51715;BME280;39115;59.332;18.034;2022-10-16T07:12:28;100107.25;;;13.49;67.39
51715;BME280;39115;59.332;18.034;2022-10-16T07:14:53;100114.09;;;13.51;67.21
51715;BME280;39115;59.332;18.034;2022-10-16T07:17:21;100113.59;;;13.56;67.39
51715;BME280;39115;59.332;18.034;2022-10-16T07:19:47;100113.25;;;13.59;67.08
51715;BME280;39115;59.332;18.034;2022-10-16T07:22:12;100109.59;;;13.60;67.16
51715;BME280;39115;59.332;18.034;2022-10-16T07:24:38;100118.44;;;13.60;67.21
51715;BME280;39115;59.332;18.034;2022-10-16T07:27:03;100113.06;;;13.60;67.42
51715;BME280;39115;59.332;18.034;2022-10-16T07:29:28;100121.78;;;13.63;67.06
51715;BME280;39115;59.332;18.034;2022-10-16T07:31:54;100112.75;;;13.64;67.50
51715;BME280;39115;59.332;18.034;2022-10-16T07:34:19;100113.56;;;13.64;67.37
51715;BME280;39115;59.332;18.034;2022-10-16T07:36:49;100123.09;;;13.67;67.42
51715;BME280;39115;59.332;18.034;2022-10-16T07:39:15;100116.75;;;13.68;67.29
51715;BME280;39115;59.332;18.034;2022-10-16T07:41:40;100124.75;;;13.68;67.42
51715;BME280;39115;59.332;18.034;2022-10-16T07:44:05;100128.09;;;13.70;67.25
51715;BME280;39115;59.332;18.034;2022-10-16T07:46:31;100131.59;;;13.70;67.43
51715;BME280;39115;59.332;18.034;2022-10-16T07:48:58;100120.09;;;13.70;67.33
51715;BME280;39115;59.332;18.034;2022-10-16T07:51:24;100124.44;;;13.71;67.17
51715;BME280;39115;59.332;18.034;2022-10-16T07:53:50;100124.44;;;13.71;67.35
51715;BME280;39115;59.332;18.034;2022-10-16T07:56:16;100118.09;;;13.72;67.23
51715;BME280;39115;59.332;18.034;2022-10-16T07:58:42;100119.72;;;13.73;67.15
51715;BME280;39115;59.332;18.034;2022-10-16T08:01:08;100119.72;;;13.73;67.32
51715;BME280;39115;59.332;18.034;2022-10-16T08:03:34;100122.41;;;13.73;67.53
51715;BME280;39115;59.332;18.034;2022-10-16T08:05:59;100133.94;;;13.73;67.48
51715;BME280;39115;59.332;18.034;2022-10-16T08:08:25;100123.06;;;13.75;67.36
51715;BME280;39115;59.332;18.034;2022-10-16T08:10:51;100123.94;;;13.75;67.31
51715;BME280;39115;59.332;18.034;2022-10-16T08:13:16;100131.94;;;13.75;67.36
51715;BME280;39115;59.332;18.034;2022-10-16T08:15:42;100132.78;;;13.76;67.20
51715;BME280;39115;59.332;18.034;2022-10-16T08:18:09;100135.44;;;13.76;67.49
51715;BME280;39115;59.332;18.034;2022-10-16T08:20:34;100140.63;;;13.78;67.40
51715;BME280;39115;59.332;18.034;2022-10-16T08:23:00;100143.97;;;13.80;67.39
51715;BME280;39115;59.332;18.034;2022-10-16T08:25:25;100150.13;;;13.80;67.15
51715;BME280;39115;59.332;18.034;2022-10-16T08:27:50;100146.47;;;13.81;67.13
51715;BME280;39115;59.332;18.034;2022-10-16T08:30:16;100143.78;;;13.81;67.28
51715;BME280;39115;59.332;18.034;2022-10-16T08:32:42;100149.13;;;13.81;67.37
51715;BME280;39115;59.332;18.034;2022-10-16T08:35:08;100152.47;;;13.83;67.35
51715;BME280;39115;59.332;18.034;2022-10-16T08:37:34;100144.94;;;13.87;67.26
51715;BME280;39115;59.332;18.034;2022-10-16T08:39:59;100143.94;;;13.88;67.04
51715;BME280;39115;59.332;18.034;2022-10-16T08:42:37;100147.44;;;13.88;67.29
51715;BME280;39115;59.332;18.034;2022-10-16T08:50:09;100149.75;;;14.00;66.94
51715;BME280;39115;59.332;18.034;2022-10-16T08:52:35;100151.06;;;14.04;66.88
51715;BME280;39115;59.332;18.034;2022-10-16T08:55:03;100143.91;;;14.04;67.14
51715;BME280;39115;59.332;18.034;2022-10-16T08:57:29;100152.75;;;14.05;66.99
51715;BME280;39115;59.332;18.034;2022-10-16T08:59:57;100148.25;;;14.05;67.13
51715;BME280;39115;59.332;18.034;2022-10-16T09:02:33;100154.25;;;14.07;67.11
51715;BME280;39115;59.332;18.034;2022-10-16T09:05:02;100155.09;;;14.08;67.14
51715;BME280;39115;59.332;18.034;2022-10-16T09:10:23;100156.59;;;14.11;66.92
51715;BME280;39115;59.332;18.034;2022-10-16T09:12:55;100153.25;;;14.08;67.09
51715;BME280;39115;59.332;18.034;2022-10-16T09:18:02;100155.25;;;14.15;66.80
51715;BME280;39115;59.332;18.034;2022-10-16T09:20:42;100159.06;;;14.20;66.75
51715;BME280;39115;59.332;18.034;2022-10-16T09:23:12;100161.06;;;14.27;66.80
51715;BME280;39115;59.332;18.034;2022-10-16T09:25:39;100160.38;;;14.33;66.56
51715;BME280;39115;59.332;18.034;2022-10-16T09:28:07;100142.59;;;14.40;66.97
51715;BME280;39115;59.332;18.034;2022-10-16T09:30:33;100155.81;;;14.42;66.53
51715;BME280;39115;59.332;18.034;2022-10-16T09:32:58;100154.78;;;14.43;66.81
51715;BME280;39115;59.332;18.034;2022-10-16T09:35:37;100159.81;;;14.46;66.53
51715;BME280;39115;59.332;18.034;2022-10-16T09:38:04;100154.47;;;14.46;66.79
51715;BME280;39115;59.332;18.034;2022-10-16T09:42:57;100147.53;;;14.51;66.49
51715;BME280;39115;59.332;18.034;2022-10-16T09:45:26;100157.75;;;14.56;66.33
51715;BME280;39115;59.332;18.034;2022-10-16T09:47:51;100151.03;;;14.68;66.49
51715;BME280;39115;59.332;18.034;2022-10-16T09:50:23;100146.25;;;14.79;66.37
51715;BME280;39115;59.332;18.034;2022-10-16T09:52:50;100156.09;;;14.86;65.95
51715;BME280;39115;59.332;18.034;2022-10-16T09:55:16;100151.41;;;14.89;66.40
51715;BME280;39115;59.332;18.034;2022-10-16T09:57:51;100155.38;;;14.93;66.20
51715;BME280;39115;59.332;18.034;2022-10-16T10:00:16;100139.13;;;14.94;65.99
51715;BME280;39115;59.332;18.034;2022-10-16T10:02:42;100154.19;;;14.95;66.02
51715;BME280;39115;59.332;18.034;2022-10-16T10:05:18;100148.59;;;15.05;66.14
51715;BME280;39115;59.332;18.034;2022-10-16T10:07:52;100151.06;;;15.15;65.91
51715;BME280;39115;59.332;18.034;2022-10-16T10:10:22;100145.16;;;15.20;65.77
51715;BME280;39115;59.332;18.034;2022-10-16T10:12:48;100150.81;;;15.25;65.74
51715;BME280;39115;59.332;18.034;2022-10-16T10:15:13;100152.75;;;15.31;65.76
51715;BME280;39115;59.332;18.034;2022-10-16T10:17:48;100151.75;;;15.32;65.63
51715;BME280;39115;59.332;18.034;2022-10-16T10:20:30;100144.59;;;15.24;66.09
51715;BME280;39115;59.332;18.034;2022-10-16T10:22:59;100153.69;;;15.23;65.97
51715;BME280;39115;59.332;18.034;2022-10-16T10:38:39;100154.84;;;15.21;65.74
51715;BME280;39115;59.332;18.034;2022-10-16T10:45:58;100141.91;;;15.24;65.79
51715;BME280;39115;59.332;18.034;2022-10-16T10:51:09;100154.38;;;15.40;65.72
51715;BME280;39115;59.332;18.034;2022-10-16T10:56:17;100154.38;;;15.55;65.53
51715;BME280;39115;59.332;18.034;2022-10-16T11:01:30;100141.56;;;15.65;65.48
51715;BME280;39115;59.332;18.034;2022-10-16T11:04:01;100140.91;;;15.63;65.55
51715;BME280;39115;59.332;18.034;2022-10-16T11:06:50;100135.91;;;15.60;65.68
51715;BME280;39115;59.332;18.034;2022-10-16T11:11:59;100143.56;;;15.63;65.49
51715;BME280;39115;59.332;18.034;2022-10-16T11:14:28;100142.47;;;15.58;65.68
51715;BME280;39115;59.332;18.034;2022-10-16T11:21:51;100129.31;;;15.48;65.49
51715;BME280;39115;59.332;18.034;2022-10-16T11:24:21;100129.16;;;15.49;65.64
51715;BME280;39115;59.332;18.034;2022-10-16T11:26:48;100116.47;;;15.58;65.46
51715;BME280;39115;59.332;18.034;2022-10-16T11:29:17;100115.38;;;15.68;65.40
51715;BME280;39115;59.332;18.034;2022-10-16T11:31:49;100121.22;;;15.71;65.32
51715;BME280;39115;59.332;18.034;2022-10-16T11:34:17;100125.19;;;15.75;65.18
51715;BME280;39115;59.332;18.034;2022-10-16T11:37:04;100114.28;;;15.77;65.02
51715;BME280;39115;59.332;18.034;2022-10-16T11:39:30;100119.09;;;15.81;65.12
51715;BME280;39115;59.332;18.034;2022-10-16T11:41:59;100110.00;;;15.82;65.39
51715;BME280;39115;59.332;18.034;2022-10-16T11:49:32;100107.41;;;15.59;65.55
51715;BME280;39115;59.332;18.034;2022-10-16T11:54:45;100105.56;;;15.45;65.48
51715;BME280;39115;59.332;18.034;2022-10-16T11:57:23;100106.75;;;15.42;65.53
51715;BME280;39115;59.332;18.034;2022-10-16T12:04:50;100087.63;;;15.60;65.35
51715;BME280;39115;59.332;18.034;2022-10-16T12:07:25;100075.41;;;15.73;64.89
51715;BME280;39115;59.332;18.034;2022-10-16T12:09:52;100068.53;;;15.93;64.57
51715;BME280;39115;59.332;18.034;2022-10-16T12:15:03;100068.19;;;16.18;64.73
51715;BME280;39115;59.332;18.034;2022-10-16T12:17:42;100069.50;;;16.22;64.58
51715;BME280;39115;59.332;18.034;2022-10-16T12:22:36;100052.97;;;16.25;64.63
51715;BME280;39115;59.332;18.034;2022-10-16T12:25:01;100057.78;;;16.30;64.59
51715;BME280;39115;59.332;18.034;2022-10-16T12:29:59;100039.84;;;16.52;64.37
51715;BME280;39115;59.332;18.034;2022-10-16T12:34:53;100036.03;;;16.40;64.84
51715;BME280;39115;59.332;18.034;2022-10-16T12:39:44;100037.00;;;16.17;64.74
51715;BME280;39115;59.332;18.034;2022-10-16T12:44:44;100034.19;;;15.89;65.01
51715;BME280;39115;59.332;18.034;2022-10-16T12:47:18;100028.59;;;15.75;65.26
51715;BME280;39115;59.332;18.034;2022-10-16T12:49:48;100027.59;;;15.61;65.36
51715;BME280;39115;59.332;18.034;2022-10-16T12:52:23;100023.16;;;15.54;65.31
51715;BME280;39115;59.332;18.034;2022-10-16T12:54:50;100022.50;;;15.52;65.51
51715;BME280;39115;59.332;18.034;2022-10-16T13:05:21;100016.69;;;15.33;65.51
51715;BME280;39115;59.332;18.034;2022-10-16T13:12:51;100006.97;;;15.32;65.27
51715;BME280;39115;59.332;18.034;2022-10-16T13:15:28;100003.28;;;15.33;64.98
51715;BME280;39115;59.332;18.034;2022-10-16T13:18:16;100001.78;;;15.45;65.10
51715;BME280;39115;59.332;18.034;2022-10-16T13:26:24;99970.00;;;16.09;64.38
51715;BME280;39115;59.332;18.034;2022-10-16T13:28:53;99974.03;;;16.20;64.37
51715;BME280;39115;59.332;18.034;2022-10-16T13:31:20;99967.91;;;16.26;64.42
51715;BME280;39115;59.332;18.034;2022-10-16T13:33:47;99963.63;;;16.32;64.09
51715;BME280;39115;59.332;18.034;2022-10-16T13:36:23;99966.13;;;16.33;64.25
51715;BME280;39115;59.332;18.034;2022-10-16T13:38:49;99960.94;;;16.32;64.17
51715;BME280;39115;59.332;18.034;2022-10-16T13:41:25;99969.38;;;16.28;64.41
51715;BME280;39115;59.332;18.034;2022-10-16T13:43:51;99959.22;;;16.24;64.32
51715;BME280;39115;59.332;18.034;2022-10-16T13:46:18;99953.03;;;16.23;64.43
51715;BME280;39115;59.332;18.034;2022-10-16T13:48:44;99936.91;;;16.23;64.21
51715;BME280;39115;59.332;18.034;2022-10-16T13:51:16;99941.63;;;16.21;64.42
51715;BME280;39115;59.332;18.034;2022-10-16T13:53:42;99919.78;;;16.24;64.17
51715;BME280;39115;59.332;18.034;2022-10-16T13:56:17;99926.22;;;16.30;64.04
51715;BME280;39115;59.332;18.034;2022-10-16T13:58:42;99939.50;;;16.38;63.92
51715;BME280;39115;59.332;18.034;2022-10-16T14:01:18;99954.69;;;16.46;64.04
51715;BME280;39115;59.332;18.034;2022-10-16T14:03:45;99950.84;;;16.55;63.84
51715;BME280;39115;59.332;18.034;2022-10-16T14:06:12;99948.78;;;16.57;63.89
51715;BME280;39115;59.332;18.034;2022-10-16T14:08:40;99953.97;;;16.59;63.62
51715;BME280;39115;59.332;18.034;2022-10-16T14:11:07;99952.09;;;16.59;63.65
51715;BME280;39115;59.332;18.034;2022-10-16T14:13:34;99936.84;;;16.60;63.64
51715;BME280;39115;59.332;18.034;2022-10-16T14:16:02;99949.22;;;16.61;63.54
51715;BME280;39115;59.332;18.034;2022-10-16T14:18:30;99959.34;;;16.59;63.51
51715;BME280;39115;59.332;18.034;2022-10-16T14:21:02;99963.88;;;16.58;63.63
51715;BME280;39115;59.332;18.034;2022-10-16T14:23:35;99954.47;;;16.48;63.58
51715;BME280;39115;59.332;18.034;2022-10-16T14:26:21;99949.13;;;16.26;63.86
51715;BME280;39115;59.332;18.034;2022-10-16T14:28:47;99939.84;;;16.07;63.81